This is the latest recevied weather packets stored in our database for station/object KG7BDA. If no packets are shown the sender has not sent any weather packets the latest 10 day(s).
| Time | Temp. | Humidity | Pressure | Rain* | Wind** | Luminosity | Snow |
|---|---|---|---|---|---|---|---|
| 1777982959 | 10° C | 65% | 1008.8 hPa | 0 mm | - | - | - |
| 1777982600 | 10° C | 65% | 1008.8 hPa | 0 mm | - | - | - |
| 1777982239 | 10° C | 67% | 1008.7 hPa | 0 mm | - | - | - |
| 1777981879 | 9.44° C | 68% | 1008.7 hPa | 0 mm | - | - | - |
| 1777981520 | 10° C | 65% | 1008.7 hPa | 0 mm | - | - | - |
| 1777981159 | 10° C | 65% | 1008.6 hPa | 0 mm | - | - | - |
| 1777980799 | 10.56° C | 63% | 1008.3 hPa | 0 mm | - | - | - |
| 1777980438 | 11.11° C | 62% | 1008.3 hPa | 0 mm | - | - | - |
| 1777980080 | 11.11° C | 63% | 1008.1 hPa | 0 mm | - | - | - |
| 1777979720 | 11.11° C | 62% | 1008.1 hPa | 0 mm | - | - | - |
| 1777979359 | 11.11° C | 62% | 1008.1 hPa | 0 mm | - | - | - |
| 1777979000 | 11.11° C | 61% | 1008 hPa | 0 mm | - | - | - |
| 1777978639 | 11.67° C | 59% | 1008 hPa | 0 mm | - | - | - |
| 1777978279 | 11.67° C | 59% | 1007.8 hPa | 0 mm | - | - | - |
| 1777977919 | 11.67° C | 59% | 1007.6 hPa | 0 mm | - | - | - |
| 1777977558 | 12.22° C | 58% | 1007.6 hPa | 0 mm | - | - | - |
| 1777977200 | 12.22° C | 58% | 1007.7 hPa | 0 mm | - | - | - |
| 1777976840 | 12.22° C | 58% | 1007.5 hPa | 0 mm | - | - | - |
| 1777976480 | 12.22° C | 58% | 1007.4 hPa | 0 mm | - | - | - |
| 1777976119 | 12.22° C | 57% | 1007.4 hPa | 0 mm | - | - | - |
| 1777975759 | 12.22° C | 56% | 1007.2 hPa | 0 mm | - | - | - |
| 1777975399 | 12.22° C | 56% | 1007 hPa | 0 mm | - | - | - |
| 1777975040 | 12.78° C | 55% | 1007 hPa | 0 mm | - | - | - |
| 1777974680 | 12.78° C | 55% | 1007 hPa | 0 mm | - | - | - |
| 1777974319 | 13.33° C | 54% | 1006.8 hPa | 0 mm | - | - | - |
* Rain latest hour (hover to see other rain measurements)
** Current wind speed in m/s (hover to see current wind gust speed)